createdAt,value
2023-05-11T00:02:19.001Z,100.00
2023-05-11T00:04:47.701Z,100.00
2023-05-11T00:07:16.136Z,100.00
2023-05-11T00:09:44.505Z,100.00
2023-05-11T00:12:14.269Z,100.00
2023-05-11T00:14:42.665Z,100.00
2023-05-11T00:17:12.735Z,100.00
2023-05-11T00:19:41.163Z,100.00
2023-05-11T00:22:09.574Z,100.00
2023-05-11T00:24:38.634Z,100.00
2023-05-11T00:27:07.137Z,100.00
2023-05-11T00:29:35.591Z,100.00
2023-05-11T00:32:03.985Z,100.00
2023-05-11T00:34:32.995Z,100.00
2023-05-11T00:37:02.106Z,100.00
2023-05-11T00:39:30.457Z,100.00
2023-05-11T00:41:58.889Z,100.00
2023-05-11T00:44:27.315Z,100.00
2023-05-11T00:46:55.740Z,100.00
2023-05-11T00:49:24.707Z,100.00
2023-05-11T00:51:53.133Z,100.00
2023-05-11T00:54:22.147Z,100.00
2023-05-11T00:56:50.747Z,100.00
2023-05-11T00:59:19.649Z,100.00
2023-05-11T01:01:48.170Z,100.00
2023-05-11T01:04:17.056Z,100.00
2023-05-11T01:07:05.593Z,100.00
2023-05-11T01:10:05.321Z,100.00
2023-05-11T01:12:51.145Z,100.00
2023-05-11T01:15:45.920Z,100.00
2023-05-11T01:18:40.362Z,100.00
2023-05-11T01:21:11.063Z,100.00
2023-05-11T01:24:01.984Z,100.00
2023-05-11T01:27:14.941Z,100.00
2023-05-11T01:30:01.716Z,100.00
2023-05-11T01:32:36.446Z,100.00
2023-05-11T01:35:13.274Z,100.00
2023-05-11T01:37:47.452Z,100.00
2023-05-11T01:40:19.217Z,100.00
2023-05-11T01:42:51.335Z,100.00
2023-05-11T01:45:21.927Z,100.00
2023-05-11T01:47:52.208Z,100.00
2023-05-11T01:50:23.331Z,100.00
2023-05-11T01:52:54.086Z,100.00
2023-05-11T01:55:24.914Z,100.00
2023-05-11T01:57:55.836Z,100.00
2023-05-11T02:00:25.147Z,100.00
2023-05-11T02:02:57.721Z,100.00
2023-05-11T02:05:28.367Z,100.00
2023-05-11T02:07:59.462Z,100.00
2023-05-11T02:10:28.526Z,100.00
2023-05-11T02:12:57.737Z,100.00
2023-05-11T02:15:28.102Z,100.00
2023-05-11T02:17:58.130Z,100.00
2023-05-11T02:20:27.921Z,100.00
2023-05-11T02:22:57.591Z,100.00
2023-05-11T02:25:26.896Z,100.00
2023-05-11T02:27:55.454Z,100.00
2023-05-11T02:30:25.127Z,100.00
2023-05-11T02:32:56.750Z,100.00
2023-05-11T02:35:29.816Z,100.00
2023-05-11T02:38:01.698Z,100.00
2023-05-11T02:40:35.879Z,100.00
2023-05-11T02:43:13.715Z,100.00
2023-05-11T02:45:46.876Z,100.00
2023-05-11T02:48:24.079Z,100.00
2023-05-11T02:50:56.245Z,100.00
2023-05-11T02:53:28.878Z,100.00
2023-05-11T02:55:58.416Z,100.00
2023-05-11T02:58:27.485Z,100.00
2023-05-11T03:00:57.368Z,100.00
2023-05-11T03:03:26.764Z,97.87
2023-05-11T03:05:55.216Z,99.12
2023-05-11T03:08:23.707Z,100.00
2023-05-11T03:10:53.640Z,99.95
2023-05-11T03:13:25.432Z,99.66
2023-05-11T03:15:54.230Z,100.00
2023-05-11T03:18:24.486Z,96.62
2023-05-11T03:20:53.420Z,97.79
2023-05-11T03:23:26.134Z,98.97
2023-05-11T03:25:55.818Z,97.93
2023-05-11T03:28:27.267Z,96.27
2023-05-11T03:30:56.381Z,95.75
2023-05-11T03:33:25.156Z,98.33
2023-05-11T03:35:55.598Z,96.80
2023-05-11T03:38:28.215Z,96.16
2023-05-11T03:40:59.238Z,93.25
2023-05-11T03:43:31.421Z,92.89
2023-05-11T03:46:01.879Z,90.48
2023-05-11T03:48:30.853Z,89.26
2023-05-11T03:51:00.011Z,89.65
2023-05-11T03:53:28.696Z,91.08
2023-05-11T03:55:57.317Z,93.05
2023-05-11T03:58:26.045Z,92.05
2023-05-11T04:00:54.648Z,91.10
2023-05-11T04:03:23.261Z,93.75
2023-05-11T04:05:51.798Z,91.16
2023-05-11T04:08:20.246Z,91.58
2023-05-11T04:10:48.683Z,88.93
2023-05-11T04:13:17.114Z,88.59
2023-05-11T04:15:45.581Z,90.81
2023-05-11T04:18:13.983Z,91.25
2023-05-11T04:20:42.406Z,88.95
2023-05-11T04:23:10.846Z,90.24
2023-05-11T04:25:39.225Z,88.55
2023-05-11T04:30:36.154Z,88.56
2023-05-11T04:33:04.859Z,87.10
2023-05-11T04:35:33.272Z,89.97
2023-05-11T04:38:01.700Z,88.39
2023-05-11T04:40:30.137Z,87.61
2023-05-11T04:42:58.609Z,88.53
2023-05-11T04:45:27.147Z,87.87
2023-05-11T04:47:56.335Z,90.73
2023-05-11T04:50:24.758Z,88.67
2023-05-11T04:52:53.181Z,90.47
2023-05-11T04:55:22.424Z,85.06
2023-05-11T04:57:50.859Z,85.33
2023-05-11T05:00:20.096Z,85.08
2023-05-11T05:02:49.008Z,87.19
2023-05-11T05:05:17.673Z,87.30
2023-05-11T05:07:46.168Z,84.86
2023-05-11T05:10:14.662Z,81.24
2023-05-11T05:12:43.186Z,80.51
2023-05-11T05:15:12.553Z,85.20
2023-05-11T05:17:41.287Z,83.81
2023-05-11T05:20:10.097Z,86.17
2023-05-11T05:22:38.521Z,85.62
2023-05-11T05:25:07.609Z,85.09
2023-05-11T05:27:36.237Z,83.33
2023-05-11T05:30:04.799Z,82.33
2023-05-11T05:32:33.270Z,83.72
2023-05-11T05:35:01.750Z,83.78
2023-05-11T05:37:30.455Z,84.35
2023-05-11T05:39:58.852Z,81.92
2023-05-11T05:42:27.361Z,84.35
2023-05-11T05:44:55.806Z,85.58
2023-05-11T05:47:24.236Z,85.49
2023-05-11T05:49:52.658Z,85.68
2023-05-11T05:52:21.054Z,82.18
2023-05-11T05:54:49.447Z,82.46
2023-05-11T05:57:17.870Z,84.07
2023-05-11T05:59:46.345Z,84.08
2023-05-11T06:02:15.019Z,81.04
2023-05-11T06:04:44.444Z,80.54
2023-05-11T06:07:15.096Z,83.32
2023-05-11T06:09:43.518Z,83.23
2023-05-11T06:12:11.912Z,81.29
2023-05-11T06:14:40.376Z,75.75
2023-05-11T06:17:08.880Z,75.63
2023-05-11T06:19:37.945Z,79.08
2023-05-11T06:22:06.998Z,77.98
2023-05-11T06:24:35.505Z,82.20
2023-05-11T06:27:04.039Z,80.44
2023-05-11T06:29:32.476Z,81.53
2023-05-11T06:32:01.082Z,77.85
2023-05-11T06:34:29.619Z,77.26
2023-05-11T06:37:01.008Z,79.27
2023-05-11T06:39:29.435Z,78.67
2023-05-11T06:42:00.451Z,76.34
2023-05-11T06:44:30.958Z,78.05
2023-05-11T06:46:59.542Z,75.72
2023-05-11T06:49:27.945Z,79.50
2023-05-11T06:51:56.348Z,74.81
2023-05-11T06:54:24.744Z,72.47
2023-05-11T06:56:53.156Z,69.46
2023-05-11T06:59:21.744Z,69.76
2023-05-11T07:01:50.167Z,77.14
2023-05-11T07:04:19.361Z,76.56
2023-05-11T07:06:47.857Z,75.61
2023-05-11T07:09:16.427Z,73.48
2023-05-11T07:11:44.916Z,78.00
2023-05-11T07:14:13.503Z,75.86
2023-05-11T07:16:42.186Z,77.92
2023-05-11T07:19:11.185Z,72.57
2023-05-11T07:21:40.045Z,76.27
2023-05-11T07:24:08.554Z,76.94
2023-05-11T07:26:36.948Z,73.32
2023-05-11T07:29:05.336Z,74.65
2023-05-11T07:31:34.638Z,74.99
2023-05-11T07:34:03.256Z,74.12
2023-05-11T07:36:31.752Z,72.64
2023-05-11T07:39:02.150Z,76.92
2023-05-11T07:41:30.502Z,72.27
2023-05-11T07:44:02.858Z,72.49
2023-05-11T07:46:31.493Z,77.77
2023-05-11T07:49:13.709Z,77.10
2023-05-11T07:51:45.742Z,77.74
2023-05-11T07:54:14.093Z,77.23
2023-05-11T07:56:43.032Z,79.62
2023-05-11T07:59:11.372Z,79.26
2023-05-11T08:01:39.827Z,77.14
2023-05-11T08:04:08.586Z,79.33
2023-05-11T08:06:36.930Z,77.80
2023-05-11T08:09:06.139Z,78.04
2023-05-11T08:11:35.387Z,80.86
2023-05-11T08:14:04.681Z,79.10
2023-05-11T08:16:33.354Z,75.73
2023-05-11T08:19:01.828Z,81.59
2023-05-11T08:21:31.590Z,79.68
2023-05-11T08:24:00.528Z,79.78
2023-05-11T08:26:29.337Z,79.30
2023-05-11T08:28:57.760Z,81.13
2023-05-11T08:31:26.362Z,81.92
2023-05-11T08:33:54.869Z,80.56
2023-05-11T09:15:55.678Z,78.41
2023-05-11T09:18:24.426Z,79.20
2023-05-11T09:20:53.375Z,77.21
2023-05-11T09:23:30.094Z,78.38
2023-05-11T09:25:58.623Z,79.36
2023-05-11T09:28:35.379Z,80.12
2023-05-11T09:31:04.076Z,80.42
2023-05-11T09:33:32.651Z,80.28
2023-05-11T09:36:01.200Z,76.96
2023-05-11T09:38:29.566Z,76.33
2023-05-11T09:40:58.155Z,76.93
2023-05-11T09:43:32.170Z,78.69
2023-05-11T09:46:08.154Z,76.87
2023-05-11T09:48:36.719Z,77.66
2023-05-11T09:51:07.250Z,76.86
2023-05-11T09:53:38.201Z,76.76
2023-05-11T09:56:07.067Z,76.81
2023-05-11T09:58:58.161Z,76.17
2023-05-11T10:01:36.042Z,76.31
2023-05-11T10:04:17.853Z,74.92
2023-05-11T10:06:54.562Z,77.29
2023-05-11T10:09:28.088Z,78.27
2023-05-11T10:11:57.504Z,77.09
2023-05-11T10:14:28.854Z,79.32
2023-05-11T10:16:59.950Z,78.63
2023-05-11T10:19:29.151Z,80.57
2023-05-11T10:21:58.493Z,81.21
2023-05-11T10:24:27.429Z,80.69
2023-05-11T10:26:58.291Z,80.27
2023-05-11T10:29:27.087Z,80.53
2023-05-11T10:31:58.899Z,80.85
2023-05-11T10:34:30.082Z,82.32
2023-05-11T10:37:02.848Z,82.84
2023-05-11T10:39:32.425Z,83.69
2023-05-11T10:42:28.073Z,84.70
2023-05-11T10:45:24.637Z,84.46
2023-05-11T10:48:11.392Z,84.75
2023-05-11T10:50:41.479Z,83.89
2023-05-11T10:53:28.711Z,84.07
2023-05-11T10:56:36.141Z,84.94
2023-05-11T10:59:23.539Z,84.49
2023-05-11T11:01:59.271Z,85.17
2023-05-11T11:04:42.324Z,85.29
2023-05-11T11:07:10.780Z,85.21
2023-05-11T11:10:00.375Z,86.94
2023-05-11T11:12:30.591Z,87.06
2023-05-11T11:15:03.201Z,85.95
2023-05-11T11:17:33.588Z,85.33
2023-05-11T11:20:05.145Z,87.06
2023-05-11T11:22:53.773Z,88.36
2023-05-11T11:25:55.282Z,88.23
2023-05-11T11:28:23.619Z,88.56
2023-05-11T11:31:38.027Z,90.19
2023-05-11T11:34:31.322Z,90.40
2023-05-11T11:37:01.783Z,89.24
2023-05-11T11:39:46.103Z,87.91
2023-05-11T11:42:19.459Z,88.73
2023-05-11T11:44:48.153Z,89.92
2023-05-11T11:47:19.583Z,90.85
2023-05-11T11:49:54.139Z,91.31
2023-05-11T11:52:28.963Z,91.28
2023-05-11T11:55:02.337Z,92.24
2023-05-11T11:57:36.640Z,93.00
2023-05-11T12:00:11.555Z,93.98
2023-05-11T12:02:47.444Z,94.02
2023-05-11T12:05:23.971Z,95.18
2023-05-11T12:07:54.697Z,95.55
2023-05-11T12:10:24.824Z,95.21
2023-05-11T12:12:59.891Z,95.24
2023-05-11T12:15:30.920Z,95.70
2023-05-11T12:18:01.037Z,96.89
2023-05-11T12:20:30.026Z,96.68
2023-05-11T12:22:59.031Z,96.53
2023-05-11T12:25:27.522Z,96.61
2023-05-11T12:28:04.174Z,97.52
2023-05-11T12:30:34.555Z,97.49
2023-05-11T12:33:05.288Z,98.77
2023-05-11T12:35:35.729Z,98.66
2023-05-11T12:38:05.119Z,97.61
2023-05-11T12:40:33.801Z,98.30
2023-05-11T12:43:02.466Z,98.97
2023-05-11T12:45:31.833Z,99.62
2023-05-11T12:48:00.770Z,100.00
2023-05-11T12:50:29.252Z,100.00
2023-05-11T12:53:20.360Z,100.00
2023-05-11T12:56:00.296Z,100.00
2023-05-11T12:58:41.559Z,100.00
2023-05-11T13:01:10.676Z,100.00
2023-05-11T13:03:39.724Z,100.00
2023-05-11T13:06:09.993Z,100.00
2023-05-11T13:08:46.408Z,100.00
2023-05-11T13:11:29.604Z,100.00
2023-05-11T13:13:58.685Z,100.00
2023-05-11T13:16:32.846Z,100.00
2023-05-11T13:19:02.256Z,100.00
2023-05-11T13:21:32.403Z,100.00
2023-05-11T13:24:02.370Z,100.00
2023-05-11T13:26:32.129Z,100.00
2023-05-11T13:29:09.558Z,100.00
2023-05-11T13:31:53.503Z,100.00
2023-05-11T13:34:22.293Z,100.00
2023-05-11T13:36:51.177Z,100.00
2023-05-11T13:39:20.403Z,100.00
2023-05-11T13:41:48.973Z,100.00
2023-05-11T13:44:17.499Z,100.00
2023-05-11T13:46:46.409Z,100.00
2023-05-11T13:49:15.319Z,100.00
2023-05-11T13:51:43.718Z,100.00
2023-05-11T13:54:12.538Z,100.00
2023-05-11T13:56:41.575Z,100.00
2023-05-11T13:59:10.302Z,100.00
2023-05-11T14:01:39.228Z,100.00
2023-05-11T14:04:07.717Z,100.00
2023-05-11T14:06:37.150Z,100.00
2023-05-11T14:09:05.523Z,100.00
2023-05-11T14:11:33.850Z,100.00
2023-05-11T14:14:02.251Z,100.00
2023-05-11T14:16:30.864Z,100.00
2023-05-11T14:18:59.345Z,100.00
2023-05-11T14:21:27.873Z,100.00
2023-05-11T14:24:10.604Z,100.00
2023-05-11T14:26:40.572Z,100.00
2023-05-11T14:29:09.098Z,100.00
2023-05-11T14:31:38.147Z,100.00
2023-05-11T14:34:07.092Z,100.00
2023-05-11T14:36:35.545Z,100.00
2023-05-11T14:39:03.930Z,100.00
2023-05-11T14:41:32.384Z,100.00
2023-05-11T14:44:01.035Z,100.00
2023-05-11T14:46:29.624Z,100.00
2023-05-11T14:48:58.114Z,100.00
2023-05-11T14:51:26.496Z,100.00
2023-05-11T14:53:54.893Z,100.00
2023-05-11T14:56:24.443Z,100.00
2023-05-11T14:58:52.816Z,100.00
2023-05-11T15:01:21.182Z,100.00
2023-05-11T15:03:49.650Z,100.00
2023-05-11T15:06:22.289Z,100.00
2023-05-11T15:08:52.006Z,100.00
2023-05-11T15:11:20.593Z,100.00
2023-05-11T15:13:49.028Z,100.00
2023-05-11T15:16:17.469Z,100.00
2023-05-11T15:18:45.884Z,100.00
2023-05-11T15:21:14.290Z,100.00
2023-05-11T15:23:42.983Z,100.00
2023-05-11T15:26:11.486Z,100.00
2023-05-11T15:28:39.910Z,100.00
2023-05-11T15:31:08.544Z,100.00
2023-05-11T15:33:37.126Z,100.00
2023-05-11T15:36:06.662Z,100.00
2023-05-11T15:38:35.020Z,100.00
2023-05-11T15:41:04.648Z,100.00
2023-05-11T15:43:33.577Z,100.00
2023-05-11T15:46:04.385Z,100.00
2023-05-11T15:48:33.823Z,100.00
2023-05-11T15:51:04.169Z,100.00
2023-05-11T15:53:33.492Z,100.00
2023-05-11T15:56:02.429Z,100.00
2023-05-11T15:58:32.611Z,100.00
2023-05-11T16:01:02.357Z,100.00
2023-05-11T16:03:31.546Z,100.00
2023-05-11T16:06:01.205Z,100.00
2023-05-11T16:08:30.277Z,100.00
2023-05-11T16:10:59.413Z,100.00
2023-05-11T16:13:28.516Z,100.00
2023-05-11T16:15:57.534Z,100.00
2023-05-11T16:18:26.601Z,100.00
2023-05-11T16:20:55.636Z,100.00
2023-05-11T16:23:26.466Z,100.00
2023-05-11T16:25:55.258Z,100.00
2023-05-11T16:28:24.325Z,100.00
2023-05-11T16:30:53.193Z,100.00
2023-05-11T16:33:21.848Z,100.00
2023-05-11T16:35:50.593Z,100.00
2023-05-11T16:38:20.953Z,100.00
2023-05-11T16:40:51.008Z,100.00
2023-05-11T16:43:19.871Z,100.00
2023-05-11T16:45:48.677Z,100.00
2023-05-11T16:48:17.452Z,100.00
2023-05-11T16:50:46.638Z,100.00
2023-05-11T16:53:15.571Z,100.00
2023-05-11T16:55:44.470Z,100.00
2023-05-11T16:58:13.203Z,100.00
2023-05-11T17:00:42.158Z,100.00
2023-05-11T17:03:10.968Z,100.00
2023-05-11T17:05:39.817Z,100.00
2023-05-11T17:08:08.590Z,100.00
2023-05-11T17:10:37.128Z,100.00
2023-05-11T17:13:05.858Z,100.00
2023-05-11T17:15:34.943Z,100.00
2023-05-11T17:18:03.488Z,100.00
2023-05-11T17:20:32.102Z,100.00
2023-05-11T17:23:00.523Z,100.00
2023-05-11T17:25:30.878Z,100.00
2023-05-11T17:27:59.901Z,100.00
2023-05-11T17:30:39.704Z,100.00
2023-05-11T17:33:15.746Z,100.00
2023-05-11T17:35:44.566Z,100.00
2023-05-11T17:38:12.956Z,100.00
2023-05-11T17:40:41.557Z,100.00
2023-05-11T17:43:10.002Z,100.00
2023-05-11T17:45:38.689Z,100.00
2023-05-11T17:48:07.254Z,100.00
2023-05-11T17:50:37.946Z,100.00
2023-05-11T17:53:06.483Z,100.00
2023-05-11T17:55:34.885Z,100.00
2023-05-11T17:58:03.609Z,100.00
2023-05-11T18:00:32.134Z,100.00
2023-05-11T18:03:00.871Z,100.00
2023-05-11T18:05:40.472Z,100.00
2023-05-11T18:08:15.793Z,100.00
2023-05-11T18:10:44.232Z,100.00
2023-05-11T18:13:13.212Z,100.00
2023-05-11T18:15:41.672Z,100.00
2023-05-11T18:18:10.424Z,100.00
2023-05-11T18:20:40.128Z,100.00
2023-05-11T18:23:08.536Z,100.00
2023-05-11T18:25:37.033Z,100.00
2023-05-11T18:28:05.384Z,100.00
2023-05-11T18:30:35.325Z,100.00
2023-05-11T18:33:03.722Z,100.00
2023-05-11T18:35:32.413Z,100.00
2023-05-11T18:38:02.995Z,100.00
2023-05-11T18:40:31.281Z,100.00
2023-05-11T18:43:00.196Z,100.00
2023-05-11T18:45:33.801Z,100.00
2023-05-11T18:48:03.625Z,100.00
2023-05-11T18:50:32.126Z,100.00
2023-05-11T18:53:00.544Z,100.00
2023-05-11T18:55:30.945Z,100.00
2023-05-11T18:58:01.165Z,100.00
2023-05-11T19:00:29.721Z,100.00
2023-05-11T19:02:58.064Z,100.00
2023-05-11T19:05:26.395Z,100.00
2023-05-11T19:07:54.793Z,100.00
2023-05-11T19:10:25.864Z,100.00
2023-05-11T19:12:54.147Z,100.00
2023-05-11T19:15:22.508Z,100.00
2023-05-11T19:17:51.021Z,100.00
2023-05-11T19:20:19.664Z,100.00
2023-05-11T19:22:48.092Z,100.00
2023-05-11T19:25:16.456Z,100.00
2023-05-11T19:27:47.007Z,100.00
2023-05-11T19:30:15.450Z,100.00
2023-05-11T19:32:44.436Z,100.00
2023-05-11T19:35:13.611Z,100.00
2023-05-11T19:37:42.995Z,100.00
2023-05-11T19:40:43.980Z,100.00
2023-05-11T19:43:00.171Z,100.00
2023-05-11T19:45:32.301Z,100.00
2023-05-11T19:48:01.642Z,100.00
2023-05-11T19:50:30.174Z,100.00
2023-05-11T19:52:58.552Z,100.00
2023-05-11T19:55:26.987Z,100.00
2023-05-11T19:57:55.456Z,100.00
2023-05-11T20:00:26.065Z,100.00
2023-05-11T20:02:56.061Z,100.00
2023-05-11T20:05:24.551Z,100.00
2023-05-11T20:07:52.997Z,100.00
2023-05-11T20:10:21.917Z,100.00
2023-05-11T20:12:50.302Z,100.00
2023-05-11T20:15:19.017Z,100.00
2023-05-11T20:17:47.412Z,100.00
2023-05-11T20:20:15.790Z,100.00
2023-05-11T20:22:44.202Z,100.00
2023-05-11T20:25:18.437Z,100.00
2023-05-11T20:27:47.801Z,100.00
2023-05-11T20:30:17.034Z,100.00
2023-05-11T20:35:17.597Z,100.00
2023-05-11T20:37:46.092Z,100.00
2023-05-11T20:40:14.642Z,100.00
2023-05-11T20:42:43.121Z,100.00
2023-05-11T20:45:11.855Z,100.00
2023-05-11T20:47:40.317Z,100.00
2023-05-11T20:50:10.943Z,100.00
2023-05-11T20:52:39.434Z,100.00
2023-05-11T20:55:08.749Z,100.00
2023-05-11T20:57:37.091Z,100.00
2023-05-11T21:00:08.418Z,100.00
2023-05-11T21:02:36.956Z,100.00
2023-05-11T21:05:05.577Z,100.00
2023-05-11T21:07:33.893Z,100.00
2023-05-11T21:10:02.637Z,100.00
2023-05-11T21:12:30.940Z,100.00
2023-05-11T21:14:59.245Z,100.00
2023-05-11T21:17:27.524Z,100.00
2023-05-11T21:19:55.849Z,100.00
2023-05-11T21:22:24.228Z,100.00
2023-05-11T21:24:52.524Z,100.00
2023-05-11T21:27:20.796Z,100.00
2023-05-11T21:29:49.109Z,100.00
2023-05-11T21:32:17.872Z,100.00
2023-05-11T21:34:46.171Z,100.00
2023-05-11T21:37:20.719Z,100.00
2023-05-11T21:39:49.522Z,100.00
2023-05-11T21:42:18.093Z,100.00
2023-05-11T21:44:46.445Z,100.00
2023-05-11T21:47:14.810Z,100.00
2023-05-11T21:49:43.119Z,100.00
2023-05-11T21:52:11.460Z,100.00
2023-05-11T21:54:39.738Z,100.00
2023-05-11T21:57:07.996Z,100.00
2023-05-11T21:59:37.016Z,100.00
2023-05-11T22:02:05.494Z,100.00
2023-05-11T22:04:34.008Z,100.00
2023-05-11T22:07:02.400Z,100.00
2023-05-11T22:09:32.284Z,100.00
2023-05-11T22:12:00.627Z,100.00
2023-05-11T22:14:29.068Z,100.00
2023-05-11T22:16:57.419Z,100.00
2023-05-11T22:19:25.832Z,100.00
2023-05-11T22:21:54.274Z,100.00
2023-05-11T22:24:22.664Z,100.00
2023-05-11T22:26:51.014Z,100.00
2023-05-11T22:29:19.386Z,100.00
2023-05-11T22:31:47.843Z,100.00
2023-05-11T22:34:16.554Z,100.00
2023-05-11T22:36:44.839Z,100.00
2023-05-11T22:39:13.186Z,100.00
2023-05-11T22:41:41.569Z,100.00
2023-05-11T22:44:10.411Z,100.00
2023-05-11T22:46:38.809Z,100.00
2023-05-11T22:49:07.129Z,100.00
2023-05-11T22:51:35.629Z,100.00
2023-05-11T22:54:04.337Z,100.00
2023-05-11T22:56:32.843Z,100.00
2023-05-11T22:59:01.238Z,100.00
2023-05-11T23:01:30.461Z,100.00
2023-05-11T23:03:59.267Z,100.00
2023-05-11T23:06:27.609Z,100.00
2023-05-11T23:08:55.911Z,100.00
2023-05-11T23:11:25.081Z,100.00
2023-05-11T23:13:53.403Z,100.00
2023-05-11T23:16:21.684Z,100.00
2023-05-11T23:18:50.198Z,100.00
2023-05-11T23:21:18.761Z,100.00
2023-05-11T23:23:47.170Z,100.00
2023-05-11T23:26:15.442Z,100.00
2023-05-11T23:28:44.588Z,100.00
2023-05-11T23:31:12.931Z,100.00
2023-05-11T23:33:41.306Z,100.00
2023-05-11T23:36:10.285Z,100.00
2023-05-11T23:38:38.561Z,100.00
2023-05-11T23:41:07.172Z,100.00
2023-05-11T23:43:35.491Z,100.00
2023-05-11T23:46:03.861Z,100.00
2023-05-11T23:48:32.166Z,100.00
2023-05-11T23:51:00.578Z,100.00
2023-05-11T23:53:29.748Z,100.00
2023-05-11T23:55:58.023Z,100.00
2023-05-11T23:58:26.472Z,100.00
